createdAt,value
2019-05-20T00:00:04.873Z,16.25
2019-05-20T00:02:33.395Z,17.15
2019-05-20T00:05:02.014Z,14.50
2019-05-20T00:07:30.592Z,13.80
2019-05-20T00:09:59.278Z,13.40
2019-05-20T00:12:27.856Z,15.83
2019-05-20T00:14:56.402Z,14.15
2019-05-20T00:17:24.991Z,14.95
2019-05-20T00:19:53.696Z,13.53
2019-05-20T00:22:22.626Z,13.10
2019-05-20T00:24:51.263Z,12.78
2019-05-20T00:27:19.840Z,15.08
2019-05-20T00:29:48.428Z,13.98
2019-05-20T00:32:17.085Z,13.78
2019-05-20T00:34:45.649Z,12.15
2019-05-20T00:37:14.262Z,14.68
2019-05-20T00:39:42.825Z,15.43
2019-05-20T00:42:11.432Z,12.07
2019-05-20T00:44:40.557Z,15.55
2019-05-20T00:47:09.968Z,14.85
2019-05-20T00:49:38.778Z,10.03
2019-05-20T00:52:07.683Z,12.35
2019-05-20T00:54:36.254Z,13.10
2019-05-20T00:57:04.872Z,12.70
2019-05-20T00:59:33.429Z,13.40
2019-05-20T01:02:02.015Z,13.50
2019-05-20T01:04:30.552Z,10.85
2019-05-20T01:06:59.283Z,12.45
2019-05-20T01:09:27.833Z,13.15
2019-05-20T01:11:56.472Z,12.13
2019-05-20T01:14:25.178Z,13.65
2019-05-20T01:16:54.011Z,14.55
2019-05-20T01:19:22.760Z,12.23
2019-05-20T01:21:51.522Z,16.60
2019-05-20T01:24:20.067Z,16.07
2019-05-20T01:26:48.683Z,14.40
2019-05-20T01:29:17.332Z,15.20
2019-05-20T01:31:45.996Z,15.43
2019-05-20T01:34:14.547Z,20.30
2019-05-20T01:36:43.100Z,17.25
2019-05-20T01:39:11.713Z,17.87
2019-05-20T01:41:40.272Z,20.23
2019-05-20T01:44:08.886Z,20.48
2019-05-20T01:46:37.775Z,18.35
2019-05-20T01:49:06.379Z,18.00
2019-05-20T01:51:34.946Z,18.95
2019-05-20T01:54:04.088Z,20.52
2019-05-20T01:56:33.183Z,20.43
2019-05-20T01:59:01.987Z,18.85
2019-05-20T02:01:30.565Z,19.90
2019-05-20T02:03:59.536Z,18.17
2019-05-20T02:06:28.137Z,15.32
2019-05-20T02:08:56.780Z,18.55
2019-05-20T02:11:25.481Z,17.52
2019-05-20T02:16:32.790Z,13.53
2019-05-20T02:19:01.502Z,17.17
2019-05-20T02:21:30.281Z,15.90
2019-05-20T02:23:58.960Z,18.75
2019-05-20T02:26:27.652Z,15.93
2019-05-20T02:28:56.338Z,15.75
2019-05-20T02:31:24.928Z,14.75
2019-05-20T02:33:53.478Z,15.05
2019-05-20T02:36:22.227Z,12.88
2019-05-20T02:38:51.370Z,13.93
2019-05-20T02:41:20.152Z,13.35
2019-05-20T02:43:48.834Z,14.25
2019-05-20T02:46:17.502Z,13.48
2019-05-20T02:48:46.296Z,13.35
2019-05-20T02:51:16.846Z,13.48
2019-05-20T02:53:45.499Z,15.83
2019-05-20T02:56:14.056Z,16.73
2019-05-20T02:58:42.637Z,15.95
2019-05-20T03:01:11.498Z,16.20
2019-05-20T03:03:40.395Z,20.00
2019-05-20T03:06:09.272Z,14.50
2019-05-20T03:08:37.842Z,16.62
2019-05-20T03:11:06.744Z,16.93
2019-05-20T03:13:35.639Z,15.40
2019-05-20T03:16:04.248Z,13.35
2019-05-20T03:18:32.869Z,15.30
2019-05-20T03:21:01.684Z,15.45
2019-05-20T03:23:30.706Z,13.62
2019-05-20T03:25:59.298Z,14.13
2019-05-20T03:28:27.875Z,15.08
2019-05-20T03:30:56.690Z,16.80
2019-05-20T03:33:25.386Z,14.78
2019-05-20T03:35:54.255Z,19.20
2019-05-20T03:38:22.997Z,18.82
2019-05-20T03:40:51.687Z,13.65
2019-05-20T03:43:20.520Z,15.08
2019-05-20T03:45:49.065Z,14.55
2019-05-20T03:48:17.750Z,14.85
2019-05-20T03:50:46.396Z,16.15
2019-05-20T03:53:15.011Z,16.40
2019-05-20T03:55:44.549Z,14.50
2019-05-20T03:58:13.998Z,17.45
2019-05-20T04:00:45.908Z,15.43
2019-05-20T04:03:15.016Z,16.12
2019-05-20T04:05:44.650Z,15.48
2019-05-20T04:08:13.354Z,14.65
2019-05-20T04:10:42.293Z,15.58
2019-05-20T04:13:11.128Z,17.27
2019-05-20T04:15:39.849Z,21.33
2019-05-20T04:18:08.589Z,19.02
2019-05-20T04:20:37.333Z,19.15
2019-05-20T04:23:06.052Z,18.65
2019-05-20T04:25:35.079Z,20.88
2019-05-20T04:28:03.619Z,21.68
2019-05-20T04:30:32.347Z,23.62
2019-05-20T04:33:01.226Z,23.90
2019-05-20T04:35:30.121Z,21.10
2019-05-20T04:37:59.241Z,23.80
2019-05-20T04:40:27.884Z,22.17
2019-05-20T04:42:56.516Z,22.13
2019-05-20T04:45:25.055Z,26.55
2019-05-20T04:47:53.658Z,22.48
2019-05-20T04:50:22.262Z,25.88
2019-05-20T04:52:51.319Z,22.82
2019-05-20T04:55:19.982Z,26.10
2019-05-20T04:57:49.689Z,25.70
2019-05-20T05:00:21.431Z,24.75
2019-05-20T05:02:50.293Z,24.43
2019-05-20T05:05:18.949Z,26.42
2019-05-20T05:07:47.494Z,26.55
2019-05-20T05:10:16.526Z,25.15
2019-05-20T05:12:45.245Z,24.37
2019-05-20T05:15:15.385Z,26.10
2019-05-20T05:17:44.295Z,25.20
2019-05-20T05:20:18.102Z,28.17
2019-05-20T05:22:43.295Z,27.67
2019-05-20T05:25:12.515Z,27.42
2019-05-20T05:27:41.135Z,25.82
2019-05-20T05:30:10.154Z,29.32
2019-05-20T05:32:42.772Z,28.35
2019-05-20T05:35:32.313Z,29.37
2019-05-20T05:38:01.608Z,26.55
2019-05-20T05:40:31.706Z,26.48
2019-05-20T05:43:00.338Z,29.00
2019-05-20T05:45:32.442Z,24.90
2019-05-20T05:48:01.729Z,26.55
2019-05-20T05:50:30.511Z,26.10
2019-05-20T05:52:59.239Z,24.82
2019-05-20T05:55:28.257Z,25.40
2019-05-20T05:57:57.262Z,28.00
2019-05-20T06:00:26.509Z,27.48
2019-05-20T06:02:55.273Z,24.20
2019-05-20T06:05:24.067Z,22.65
2019-05-20T06:07:52.767Z,24.32
2019-05-20T06:10:22.860Z,32.70
2019-05-20T06:12:51.514Z,23.95
2019-05-20T06:15:21.267Z,25.02
2019-05-20T06:17:49.955Z,24.23
2019-05-20T06:20:19.182Z,25.32
2019-05-20T06:22:47.891Z,24.35
2019-05-20T06:25:16.818Z,23.15
2019-05-20T06:27:45.451Z,22.77
2019-05-20T06:30:14.661Z,24.80
2019-05-20T06:32:43.370Z,21.20
2019-05-20T06:35:12.563Z,22.95
2019-05-20T06:37:43.059Z,22.17
2019-05-20T06:40:13.299Z,21.95
2019-05-20T06:42:42.155Z,24.45
2019-05-20T06:45:31.802Z,22.77
2019-05-20T06:48:00.782Z,22.48
2019-05-20T06:50:29.905Z,25.02
2019-05-20T06:52:58.578Z,28.77
2019-05-20T06:55:27.461Z,26.68
2019-05-20T06:57:56.144Z,25.55
2019-05-20T07:00:36.829Z,29.10
2019-05-20T07:03:06.605Z,27.65
2019-05-20T07:05:35.282Z,24.55
2019-05-20T07:08:03.921Z,26.40
2019-05-20T07:10:32.552Z,28.98
2019-05-20T07:13:01.259Z,25.00
2019-05-20T07:15:29.884Z,26.07
2019-05-20T07:17:58.836Z,24.32
2019-05-20T07:20:27.382Z,27.00
2019-05-20T07:22:57.068Z,28.00
2019-05-20T07:25:26.130Z,28.27
2019-05-20T07:27:54.943Z,24.92
2019-05-20T07:30:23.906Z,25.68
2019-05-20T07:32:52.666Z,30.27
2019-05-20T07:35:30.153Z,28.67
2019-05-20T07:37:51.657Z,28.07
2019-05-20T07:40:41.059Z,28.25
2019-05-20T07:43:09.728Z,29.18
2019-05-20T07:45:39.196Z,30.52
2019-05-20T07:48:08.369Z,30.17
2019-05-20T07:50:39.738Z,26.50
2019-05-20T07:53:11.589Z,29.77
2019-05-20T07:55:43.557Z,30.72
2019-05-20T07:58:14.453Z,27.10
2019-05-20T08:00:43.099Z,31.95
2019-05-20T08:03:11.803Z,29.00
2019-05-20T08:05:40.283Z,29.75
2019-05-20T08:08:08.971Z,29.75
2019-05-20T08:10:37.981Z,30.32
2019-05-20T08:13:06.538Z,30.12
2019-05-20T08:15:35.124Z,29.23
2019-05-20T08:18:04.048Z,33.48
2019-05-20T08:20:32.704Z,31.23
2019-05-20T08:23:01.316Z,32.85
2019-05-20T08:25:31.496Z,32.88
2019-05-20T08:28:00.523Z,35.25
2019-05-20T08:30:52.965Z,34.88
2019-05-20T08:33:22.273Z,31.02
2019-05-20T08:35:50.830Z,36.13
2019-05-20T08:38:19.460Z,35.30
2019-05-20T08:40:48.817Z,34.20
2019-05-20T08:43:17.709Z,31.10
2019-05-20T08:45:46.615Z,32.28
2019-05-20T08:48:15.499Z,39.38
2019-05-20T08:50:44.170Z,36.15
2019-05-20T08:53:12.802Z,36.75
2019-05-20T08:55:41.393Z,35.33
2019-05-20T08:58:09.929Z,40.40
2019-05-20T09:00:38.547Z,38.10
2019-05-20T09:03:07.209Z,42.27
2019-05-20T09:05:35.768Z,41.90
2019-05-20T09:08:04.436Z,42.35
2019-05-20T09:10:33.136Z,35.08
2019-05-20T09:13:01.763Z,38.83
2019-05-20T09:15:30.445Z,42.78
2019-05-20T09:17:59.333Z,37.45
2019-05-20T09:20:28.010Z,37.98
2019-05-20T09:22:56.595Z,33.85
2019-05-20T09:25:32.531Z,32.95
2019-05-20T09:28:01.770Z,39.45
2019-05-20T09:30:30.435Z,37.17
2019-05-20T09:32:59.156Z,32.20
2019-05-20T09:35:27.863Z,36.17
2019-05-20T09:37:56.501Z,34.43
2019-05-20T09:40:43.256Z,34.00
2019-05-20T09:43:12.165Z,35.55
2019-05-20T09:45:41.163Z,40.92
2019-05-20T09:48:11.284Z,34.92
2019-05-20T09:50:40.000Z,33.50
2019-05-20T09:53:08.698Z,30.32
2019-05-20T09:55:37.781Z,34.60
2019-05-20T09:58:06.585Z,32.93
2019-05-20T10:00:35.399Z,36.45
2019-05-20T10:03:04.418Z,34.70
2019-05-20T10:05:36.844Z,40.70
2019-05-20T10:08:03.921Z,31.85
2019-05-20T10:10:32.577Z,33.15
2019-05-20T10:13:01.788Z,36.00
2019-05-20T10:15:30.610Z,31.95
2019-05-20T10:17:59.307Z,30.85
2019-05-20T10:20:27.996Z,35.23
2019-05-20T10:22:56.697Z,36.83
2019-05-20T10:25:30.569Z,32.83
2019-05-20T10:28:07.279Z,32.42
2019-05-20T10:30:38.465Z,34.67
2019-05-20T10:33:18.003Z,33.83
2019-05-20T10:35:49.391Z,34.38
2019-05-20T10:38:19.492Z,35.05
2019-05-20T10:41:02.342Z,33.67
2019-05-20T10:43:32.855Z,36.00
2019-05-20T10:46:05.640Z,32.75
2019-05-20T10:48:39.057Z,34.15
2019-05-20T10:51:10.466Z,36.80
2019-05-20T10:53:40.718Z,32.25
2019-05-20T10:56:10.965Z,33.73
2019-05-20T10:58:40.648Z,31.35
2019-05-20T11:01:10.433Z,34.20
2019-05-20T11:03:53.066Z,33.38
2019-05-20T11:06:24.381Z,36.73
2019-05-20T11:08:53.948Z,35.23
2019-05-20T11:11:30.718Z,32.42
2019-05-20T11:14:00.975Z,33.40
2019-05-20T11:16:30.654Z,34.33
2019-05-20T11:19:00.440Z,38.13
2019-05-20T11:21:30.139Z,35.65
2019-05-20T11:24:00.050Z,38.13
2019-05-20T11:26:39.446Z,34.83
2019-05-20T11:29:12.437Z,34.48
2019-05-20T11:31:42.191Z,35.03
2019-05-20T11:34:21.528Z,33.95
2019-05-20T11:36:51.946Z,34.15
2019-05-20T11:39:32.620Z,31.25
2019-05-20T11:41:54.393Z,37.78
2019-05-20T11:44:24.388Z,33.83
2019-05-20T11:46:56.434Z,36.10
2019-05-20T11:49:29.259Z,32.33
2019-05-20T11:51:58.845Z,35.33
2019-05-20T11:54:35.104Z,34.40
2019-05-20T11:57:05.037Z,37.95
2019-05-20T11:59:34.469Z,39.55
2019-05-20T12:02:09.916Z,37.75
2019-05-20T12:04:39.712Z,42.98
2019-05-20T12:07:12.339Z,35.33
2019-05-20T12:09:49.752Z,38.73
2019-05-20T12:12:14.267Z,40.17
2019-05-20T12:14:45.443Z,40.63
2019-05-20T12:17:22.162Z,38.78
2019-05-20T12:19:53.639Z,37.85
2019-05-20T12:22:23.871Z,43.65
2019-05-20T12:24:59.074Z,41.42
2019-05-20T12:27:30.136Z,37.88
2019-05-20T12:30:00.555Z,40.63
2019-05-20T12:33:17.014Z,42.75
2019-05-20T12:35:25.478Z,46.00
2019-05-20T12:37:55.016Z,47.85
2019-05-20T12:40:35.903Z,46.58
2019-05-20T12:43:11.519Z,49.95
2019-05-20T12:45:41.749Z,52.05
2019-05-20T12:48:39.179Z,50.05
2019-05-20T12:51:14.584Z,48.45
2019-05-20T12:53:44.654Z,53.85
2019-05-20T12:56:19.886Z,48.70
2019-05-20T12:58:50.839Z,52.73
2019-05-20T13:01:20.873Z,54.85
2019-05-20T13:04:15.708Z,57.00
2019-05-20T13:06:45.944Z,57.73
2019-05-20T13:09:15.863Z,56.10
2019-05-20T13:11:45.969Z,56.75
2019-05-20T13:14:16.613Z,57.90
2019-05-20T13:16:48.792Z,66.02
2019-05-20T13:19:27.414Z,56.35
2019-05-20T13:21:59.712Z,59.20
2019-05-20T13:24:30.314Z,69.12
2019-05-20T13:27:00.960Z,62.62
2019-05-20T13:29:31.957Z,64.32
2019-05-20T13:32:04.003Z,66.50
2019-05-20T13:34:33.393Z,61.40
2019-05-20T13:37:03.753Z,62.58
2019-05-20T13:39:34.794Z,64.90
2019-05-20T13:42:27.918Z,66.07
2019-05-20T13:44:57.484Z,61.92
2019-05-20T13:47:26.889Z,66.42
2019-05-20T13:49:58.048Z,64.95
2019-05-20T13:52:28.260Z,66.12
2019-05-20T13:54:59.918Z,63.50
2019-05-20T13:57:30.935Z,71.02
2019-05-20T14:00:01.362Z,65.75
2019-05-20T14:02:32.019Z,73.07
2019-05-20T14:05:01.317Z,67.85
2019-05-20T14:07:30.723Z,69.40
2019-05-20T14:10:00.923Z,72.10
2019-05-20T14:12:31.834Z,74.22
2019-05-20T14:15:02.363Z,78.80
2019-05-20T14:17:32.809Z,76.17
2019-05-20T14:20:04.577Z,70.90
2019-05-20T14:22:35.005Z,75.95
2019-05-20T14:25:06.938Z,74.07
2019-05-20T14:27:39.330Z,73.00
2019-05-20T14:30:10.480Z,70.10
2019-05-20T14:32:41.700Z,69.47
2019-05-20T14:35:32.232Z,69.40
2019-05-20T14:38:01.876Z,67.47
2019-05-20T14:40:31.610Z,66.90
2019-05-20T14:43:01.370Z,68.15
2019-05-20T14:45:31.647Z,69.40
2019-05-20T14:48:04.033Z,72.03
2019-05-20T14:50:34.533Z,69.85
2019-05-20T14:53:04.262Z,71.05
2019-05-20T14:55:42.082Z,70.37
2019-05-20T14:58:10.042Z,71.37
2019-05-20T15:00:41.211Z,67.30
2019-05-20T15:03:30.811Z,69.00
2019-05-20T15:06:01.038Z,69.92
2019-05-20T15:08:34.250Z,65.35
2019-05-20T15:11:02.310Z,68.20
2019-05-20T15:13:33.604Z,67.55
2019-05-20T15:16:04.176Z,68.85
2019-05-20T15:18:34.487Z,68.42
2019-05-20T15:21:04.657Z,72.03
2019-05-20T15:23:36.846Z,71.22
2019-05-20T15:26:08.210Z,73.83
2019-05-20T15:28:39.395Z,74.30
2019-05-20T15:31:09.932Z,70.97
2019-05-20T15:33:40.190Z,71.17
2019-05-20T15:36:10.016Z,74.77
2019-05-20T15:38:39.989Z,65.75
2019-05-20T15:44:10.303Z,68.65
2019-05-20T15:46:40.324Z,70.62
2019-05-20T15:49:09.771Z,70.03
2019-05-20T15:51:39.600Z,62.33
2019-05-20T15:54:09.072Z,65.90
2019-05-20T15:56:38.615Z,68.35
2019-05-20T15:59:08.701Z,66.00
2019-05-20T16:01:38.544Z,66.72
2019-05-20T16:04:09.235Z,65.22
2019-05-20T16:06:39.306Z,70.72
2019-05-20T16:09:09.954Z,69.60
2019-05-20T16:11:40.616Z,65.40
2019-05-20T16:14:11.699Z,68.20
2019-05-20T16:16:42.229Z,66.60
2019-05-20T16:19:11.556Z,66.07
2019-05-20T16:21:42.067Z,63.50
2019-05-20T16:24:11.496Z,66.25
2019-05-20T16:26:42.723Z,64.72
2019-05-20T16:29:32.978Z,69.37
2019-05-20T16:32:04.250Z,63.05
2019-05-20T16:34:33.462Z,61.37
2019-05-20T16:37:04.531Z,66.90
2019-05-20T16:39:36.828Z,67.27
2019-05-20T16:42:07.611Z,73.40
2019-05-20T16:44:37.417Z,75.05
2019-05-20T16:47:09.124Z,74.07
2019-05-20T16:49:39.762Z,72.78
2019-05-20T16:52:09.748Z,76.07
2019-05-20T16:54:59.853Z,78.12
2019-05-20T16:57:30.479Z,75.25
2019-05-20T16:59:59.876Z,78.52
2019-05-20T17:02:29.924Z,84.58
2019-05-20T17:05:00.899Z,82.75
2019-05-20T17:07:32.019Z,81.10
2019-05-20T17:10:03.045Z,89.05
2019-05-20T17:12:33.210Z,89.40
2019-05-20T17:15:08.335Z,90.70
2019-05-20T17:17:39.420Z,96.67
2019-05-20T17:20:10.027Z,100.55
2019-05-20T17:22:46.311Z,108.15
2019-05-20T17:25:17.138Z,103.72
2019-05-20T17:27:46.856Z,108.40
2019-05-20T17:30:16.510Z,114.80
2019-05-20T17:32:46.582Z,105.20
2019-05-20T17:35:15.862Z,106.07
2019-05-20T17:37:55.040Z,106.55
2019-05-20T17:40:43.631Z,103.60
2019-05-20T17:43:13.341Z,99.52
2019-05-20T17:45:50.421Z,97.62
2019-05-20T17:48:21.653Z,100.10
2019-05-20T17:50:51.614Z,94.50
2019-05-20T17:53:27.322Z,98.35
2019-05-20T17:55:56.803Z,88.55
2019-05-20T17:58:25.983Z,81.15
2019-05-20T18:01:14.931Z,76.65
2019-05-20T18:03:36.697Z,74.55
2019-05-20T18:06:06.596Z,62.60
2019-05-20T18:08:42.974Z,58.02
2019-05-20T18:11:13.015Z,57.27
2019-05-20T18:13:42.345Z,50.30
2019-05-20T18:16:18.318Z,50.67
2019-05-20T18:18:48.411Z,45.58
2019-05-20T18:21:17.680Z,48.98
2019-05-20T18:23:51.917Z,42.65
2019-05-20T18:26:22.078Z,40.95
2019-05-20T18:28:52.118Z,36.10
2019-05-20T18:31:32.426Z,35.83
2019-05-20T18:33:59.842Z,32.90
2019-05-20T18:36:29.309Z,32.50
2019-05-20T18:39:04.693Z,31.37
2019-05-20T18:41:34.335Z,31.10
2019-05-20T18:44:03.628Z,31.05
2019-05-20T18:46:37.954Z,26.60
2019-05-20T18:49:12.294Z,29.07
2019-05-20T18:51:41.404Z,31.05
2019-05-20T18:54:20.879Z,27.52
2019-05-20T18:56:50.627Z,27.55
2019-05-20T18:59:19.827Z,30.80
2019-05-20T19:02:13.945Z,30.30
2019-05-20T19:04:43.814Z,25.62
2019-05-20T19:07:13.914Z,26.85
2019-05-20T19:09:49.560Z,23.12
2019-05-20T19:12:19.469Z,25.32
2019-05-20T19:14:48.826Z,26.90
2019-05-20T19:17:27.130Z,27.67
2019-05-20T19:19:56.503Z,24.85
2019-05-20T19:22:26.091Z,26.12
2019-05-20T19:24:57.874Z,26.80
2019-05-20T19:27:27.279Z,25.65
2019-05-20T19:29:56.585Z,26.17
2019-05-20T19:32:26.655Z,20.12
2019-05-20T19:34:55.867Z,20.17
2019-05-20T19:37:32.799Z,21.95
2019-05-20T19:40:21.396Z,23.18
2019-05-20T19:42:52.229Z,20.82
2019-05-20T19:45:28.180Z,20.05
2019-05-20T19:47:58.778Z,17.93
2019-05-20T19:50:30.197Z,19.90
2019-05-20T19:52:59.550Z,17.85
2019-05-20T19:55:29.678Z,18.70
2019-05-20T19:58:00.829Z,17.70
2019-05-20T20:00:30.242Z,18.70
2019-05-20T20:02:59.682Z,16.65
2019-05-20T20:05:31.682Z,14.47
2019-05-20T20:08:02.237Z,16.57
2019-05-20T20:10:31.826Z,17.25
2019-05-20T20:13:03.251Z,19.82
2019-05-20T20:15:39.380Z,17.92
2019-05-20T20:18:09.018Z,21.07
2019-05-20T20:20:38.600Z,20.17
2019-05-20T20:23:13.742Z,23.30
2019-05-20T20:25:44.306Z,21.35
2019-05-20T20:28:14.862Z,23.02
2019-05-20T20:31:03.545Z,22.25
2019-05-20T20:33:35.022Z,21.55
2019-05-20T20:36:04.626Z,21.52
2019-05-20T20:38:41.264Z,23.80
2019-05-20T20:41:11.684Z,21.77
2019-05-20T20:43:42.618Z,25.97
2019-05-20T20:46:17.716Z,24.18
2019-05-20T20:48:47.465Z,23.05
2019-05-20T20:51:17.656Z,20.08
2019-05-20T20:53:49.369Z,22.22
2019-05-20T20:56:25.313Z,21.87
2019-05-20T20:58:54.750Z,23.83
2019-05-20T21:01:25.791Z,23.20
2019-05-20T21:04:17.378Z,24.55
2019-05-20T21:06:49.652Z,25.92
2019-05-20T21:09:19.670Z,25.77
2019-05-20T21:11:49.108Z,24.02
2019-05-20T21:14:24.985Z,20.62
2019-05-20T21:16:54.489Z,21.17
2019-05-20T21:19:25.551Z,21.70
2019-05-20T21:21:56.740Z,19.15
2019-05-20T21:24:26.486Z,18.77
2019-05-20T21:27:03.431Z,17.23
2019-05-20T21:29:56.766Z,16.10
2019-05-20T21:32:28.337Z,12.07
2019-05-20T21:34:59.568Z,9.43
2019-05-20T21:37:36.745Z,12.58
2019-05-20T21:40:09.025Z,6.97
2019-05-20T21:42:40.636Z,7.42
2019-05-20T21:48:06.378Z,9.90
2019-05-20T21:50:36.881Z,13.60
2019-05-20T21:53:27.829Z,11.18
2019-05-20T21:55:57.378Z,12.47
2019-05-20T21:58:27.428Z,8.25
2019-05-20T22:01:01.869Z,19.10
2019-05-20T22:03:32.028Z,10.15
2019-05-20T22:06:01.862Z,12.63
2019-05-20T22:08:35.831Z,13.15
2019-05-20T22:11:06.131Z,12.88
2019-05-20T22:13:36.091Z,14.70
2019-05-20T22:16:09.805Z,13.53
2019-05-20T22:18:40.171Z,15.00
2019-05-20T22:21:12.483Z,16.12
2019-05-20T22:23:47.586Z,17.75
2019-05-20T22:26:17.567Z,17.27
2019-05-20T22:28:48.306Z,16.80
2019-05-20T22:31:19.996Z,17.12
2019-05-20T22:33:58.177Z,15.58
2019-05-20T22:36:29.887Z,16.05
2019-05-20T22:39:04.962Z,18.00
2019-05-20T22:41:35.098Z,16.52
2019-05-20T22:44:06.819Z,13.58
2019-05-20T22:46:47.799Z,17.95
2019-05-20T22:49:17.921Z,14.50
2019-05-20T22:51:48.887Z,13.05
2019-05-20T22:54:18.668Z,13.65
2019-05-20T22:56:48.978Z,12.40
2019-05-20T22:59:18.209Z,14.07
2019-05-20T23:01:48.791Z,13.38
2019-05-20T23:04:18.372Z,10.35
2019-05-20T23:06:52.875Z,10.43
2019-05-20T23:09:22.881Z,10.58
2019-05-20T23:11:53.511Z,12.55
2019-05-20T23:14:27.423Z,12.30
2019-05-20T23:16:57.428Z,12.43
2019-05-20T23:19:28.717Z,12.28
2019-05-20T23:22:01.939Z,16.23
2019-05-20T23:24:31.454Z,16.90
2019-05-20T23:27:01.876Z,14.73
2019-05-20T23:29:35.975Z,16.60
2019-05-20T23:32:05.676Z,16.02
2019-05-20T23:34:35.506Z,16.12
2019-05-20T23:37:05.019Z,16.65
2019-05-20T23:39:35.868Z,15.68
2019-05-20T23:42:06.720Z,13.00
2019-05-20T23:44:36.819Z,8.75
2019-05-20T23:47:14.705Z,8.38
2019-05-20T23:49:44.434Z,7.83
2019-05-20T23:52:13.871Z,7.03
2019-05-20T23:54:44.660Z,6.50
2019-05-20T23:57:18.751Z,5.28
2019-05-20T23:59:48.853Z,3.75
